Time;durP1;ratioP1;P1;durP2;ratioP2;P2;SDS_P1;SDS_P2;PMS_P1;PMS_P2;Temp;Humidity;BMP_temperature;BMP_pressure;BME280_temperature;BME280_humidity;BME280_pressure;Samples;Min_cycle;Max_cycle;Signal;HPM_P1;HPM_P2
2021/03/24 00:00:48;;;;;;;68.10;28.63;;;;;;;3.76;84.34;101706.80;113015;1209;64407;-76
2021/03/24 00:03:14;;;;;;;71.45;29.25;;;;;;;3.78;83.69;101707.53;113220;1209;64458;-76
2021/03/24 00:05:45;;;;;;;67.15;29.55;;;;;;;3.84;84.34;101708.88;113123;1209;64493;-76
2021/03/24 00:08:13;;;;;;;64.43;27.37;;;;;;;3.89;84.03;101701.53;112919;1209;65653;-75
2021/03/24 00:10:39;;;;;;;65.70;27.47;;;;;;;3.93;83.62;101710.88;112973;1209;64378;-74
2021/03/24 00:13:07;;;;;;;66.03;28.13;;;;;;;3.96;83.47;101713.28;113016;1209;64407;-77
2021/03/24 00:15:34;;;;;;;61.67;25.37;;;;;;;3.99;83.79;101705.17;116031;1209;63035;-79
2021/03/24 00:18:04;;;;;;;69.15;29.00;;;;;;;4.02;83.58;101712.02;114988;1209;64365;-75
2021/03/24 00:20:34;;;;;;;61.35;26.05;;;;;;;4.04;83.59;101704.88;114243;1209;64375;-78
2021/03/24 00:23:02;;;;;;;64.67;26.17;;;;;;;4.06;83.81;101706.44;112974;1209;64361;-77
2021/03/24 00:25:29;;;;;;;65.07;27.33;;;;;;;4.04;82.87;101716.21;113075;1209;64311;-78
2021/03/24 00:27:56;;;;;;;60.60;26.33;;;;;;;4.03;83.36;101713.69;113006;1209;64368;-77
2021/03/24 00:30:27;;;;;;;73.23;27.93;;;;;;;3.98;83.13;101716.64;112912;1209;64633;-78
2021/03/24 00:32:53;;;;;;;63.90;26.27;;;;;;;3.93;83.69;101718.75;112858;1209;64390;-77
2021/03/24 00:35:20;;;;;;;67.03;25.27;;;;;;;3.88;83.21;101718.22;112866;1209;64365;-77
2021/03/24 00:37:47;;;;;;;67.80;27.50;;;;;;;3.81;82.71;101715.18;113066;1209;64403;-76
2021/03/24 00:40:21;;;;;;;62.80;28.03;;;;;;;3.75;83.15;101714.77;113051;1209;64358;-78
2021/03/24 00:42:47;;;;;;;57.93;26.00;;;;;;;3.66;83.00;101717.07;112962;1209;64442;-76
2021/03/24 00:45:14;;;;;;;62.57;25.93;;;;;;;3.59;83.61;101717.58;112958;1209;64304;-76
2021/03/24 00:47:41;;;;;;;64.87;28.77;;;;;;;3.52;83.65;101719.78;113112;1209;64393;-78
2021/03/24 00:50:12;;;;;;;60.60;27.23;;;;;;;3.45;83.99;101715.91;113048;1209;64422;-76
2021/03/24 00:52:39;;;;;;;66.40;27.55;;;;;;;3.36;85.00;101716.50;113552;1207;64710;-77
2021/03/24 00:55:06;;;;;;;64.17;28.43;;;;;;;3.29;84.46;101710.84;112957;1209;64471;-77
2021/03/24 00:57:32;;;;;;;66.37;27.10;;;;;;;3.24;84.82;101711.15;112929;1209;64460;-76
2021/03/24 00:59:59;;;;;;;68.15;27.35;;;;;;;3.18;84.38;101701.06;112982;1209;64428;-76
2021/03/24 01:02:26;;;;;;;53.55;25.25;;;;;;;3.11;84.43;101701.59;113021;1209;64378;-76
2021/03/24 01:04:52;;;;;;;52.77;24.07;;;;;;;3.04;84.22;101703.78;113004;1209;64425;-77
2021/03/24 01:07:19;;;;;;;55.70;26.10;;;;;;;2.94;84.27;101703.53;113021;1209;64384;-77
2021/03/24 01:09:46;;;;;;;59.60;25.87;;;;;;;2.86;84.35;101697.95;113105;1209;64320;-77
2021/03/24 01:12:13;;;;;;;63.43;27.43;;;;;;;2.78;85.25;101687.95;112980;1209;64419;-77
2021/03/24 01:14:40;;;;;;;70.25;29.55;;;;;;;2.73;84.96;101690.05;113098;1209;65550;-77
2021/03/24 01:17:07;;;;;;;74.93;31.83;;;;;;;2.65;84.90;101693.16;113046;1209;64965;-77
2021/03/24 01:19:33;;;;;;;66.60;29.80;;;;;;;;;;112777;1209;64458;-77
2021/03/24 01:22:00;;;;;;;64.37;29.53;;;;;;;2.62;85.53;101692.53;112993;1209;64359;-77
2021/03/24 01:24:27;;;;;;;64.55;28.60;;;;;;;2.62;85.41;101697.77;113023;1209;64705;-77
2021/03/24 01:26:53;;;;;;;73.13;30.63;;;;;;;2.64;85.66;101695.89;112983;1209;64384;-77
2021/03/24 01:29:20;;;;;;;56.43;26.53;;;;;;;2.69;85.77;101699.05;112970;1209;64336;-76
2021/03/24 01:31:46;;;;;;;63.07;29.90;;;;;;;2.74;86.10;101702.23;112995;1209;64468;-78
2021/03/24 01:34:13;;;;;;;56.70;28.60;;;;;;;2.80;86.19;101693.11;113040;1209;64326;-77
2021/03/24 01:36:40;;;;;;;37.37;18.33;;;;;;;2.84;86.24;101691.97;113078;1209;64358;-77
2021/03/24 01:39:07;;;;;;;49.60;24.40;;;;;;;2.89;85.83;101699.52;113031;1209;64406;-76
2021/03/24 01:41:34;;;;;;;69.97;32.77;;;;;;;2.94;86.12;101694.84;113045;1209;64361;-76
2021/03/24 01:44:00;;;;;;;53.17;24.13;;;;;;;2.99;85.82;101688.33;113036;1209;64426;-76
2021/03/24 01:46:42;;;;;;;72.60;34.00;;;;;;;3.05;86.09;101689.72;112996;1209;64378;-77
2021/03/24 01:49:31;;;;;;;63.33;29.57;;;;;;;3.12;85.97;101690.98;112980;1209;64371;-76
2021/03/24 01:52:09;;;;;;;60.77;31.00;;;;;;;3.19;85.78;101697.52;113100;1209;64502;-78
2021/03/24 01:54:39;;;;;;;61.43;31.60;;;;;;;3.24;86.45;101695.42;113061;1209;64343;-78
2021/03/24 01:57:20;;;;;;;67.30;32.45;;;;;;;3.30;86.28;101688.10;112885;1209;65086;-76
2021/03/24 01:59:51;;;;;;;68.23;32.53;;;;;;;3.35;86.11;101688.62;113109;1209;64407;-78
2021/03/24 02:02:30;;;;;;;66.80;32.90;;;;;;;3.41;85.25;101696.91;113070;1209;64397;-76
2021/03/24 02:04:57;;;;;;;62.73;30.27;;;;;;;3.48;85.83;101692.08;113259;1208;64831;-77
2021/03/24 02:07:51;;;;;;;62.65;29.85;;;;;;;3.53;85.76;101695.25;113055;1209;64406;-77
2021/03/24 02:10:38;;;;;;;63.00;30.37;;;;;;;3.61;85.58;101692.95;113148;1209;64512;-77
2021/03/24 02:13:15;;;;;;;58.73;30.70;;;;;;;3.66;85.80;101690.83;113061;1209;64297;-76
2021/03/24 02:15:48;;;;;;;49.67;25.70;;;;;;;3.72;85.33;101686.09;113044;1209;64429;-75
2021/03/24 02:18:18;;;;;;;57.57;29.70;;;;;;;3.75;85.13;101681.48;113229;1209;64371;-77
2021/03/24 02:20:47;;;;;;;61.67;32.17;;;;;;;3.81;85.59;101688.10;113155;1209;64477;-76
2021/03/24 02:23:34;;;;;;;63.85;32.65;;;;;;;3.85;84.70;101682.53;112968;1209;64474;-76
2021/03/24 02:26:12;;;;;;;61.30;32.80;;;;;;;3.90;84.75;101683.99;112977;1209;64380;-78
2021/03/24 02:28:42;;;;;;;64.97;30.30;;;;;;;3.95;84.63;101684.50;112956;1209;64375;-76
2021/03/24 02:31:10;;;;;;;55.65;30.60;;;;;;;3.98;84.75;101679.05;113077;1209;64352;-76
2021/03/24 02:33:41;;;;;;;50.73;27.10;;;;;;;4.00;84.41;101682.41;113153;1209;64365;-78
2021/03/24 02:36:17;;;;;;;50.75;27.05;;;;;;;3.99;84.06;101673.67;112923;1209;64553;-76
2021/03/24 02:38:47;;;;;;;45.60;24.85;;;;;;;3.99;84.61;101675.46;112988;1209;64371;-77
2021/03/24 02:41:15;;;;;;;51.90;26.53;;;;;;;3.97;83.78;101672.94;113115;1209;64486;-76
2021/03/24 02:43:43;;;;;;;62.10;29.30;;;;;;;3.96;83.88;101673.90;113090;1209;64259;-77
2021/03/24 02:46:13;;;;;;;59.45;30.35;;;;;;;3.97;83.94;101678.19;113207;1209;64560;-77
2021/03/24 02:48:41;;;;;;;65.67;30.20;;;;;;;3.96;84.63;101671.27;112968;1209;64365;-77
2021/03/24 02:51:13;;;;;;;64.25;31.45;;;;;;;3.96;84.01;101671.27;113060;1209;64406;-77
2021/03/24 02:53:56;;;;;;;40.90;22.00;;;;;;;3.98;84.02;101669.38;113019;1209;64349;-77
2021/03/24 02:56:23;;;;;;;55.33;28.83;;;;;;;3.97;83.91;101666.86;113001;1209;64357;-77
2021/03/24 02:58:52;;;;;;;42.93;22.53;;;;;;;3.96;84.59;101663.40;113016;1209;64737;-76
2021/03/24 03:01:26;;;;;;;53.85;28.95;;;;;;;3.96;84.63;101663.40;112976;1209;64448;-76
2021/03/24 03:04:18;;;;;;;56.45;26.00;;;;;;;3.99;84.33;101665.80;113101;1209;64383;-78
2021/03/24 03:06:46;;;;;;;64.17;33.73;;;;;;;4.00;83.48;101662.23;113011;1209;64381;-77
2021/03/24 03:09:39;;;;;;;57.93;27.00;;;;;;;4.03;84.24;101669.88;114619;1209;64448;-78
2021/03/24 03:12:14;;;;;;;61.70;29.60;;;;;;;4.05;84.06;101667.16;113020;1209;64397;-77
2021/03/24 03:15:03;;;;;;;59.43;30.10;;;;;;;4.06;83.57;101660.98;112942;1209;64365;-77
2021/03/24 03:17:36;;;;;;;54.67;30.47;;;;;;;4.06;83.70;101656.55;113106;1209;64471;-77
2021/03/24 03:20:25;;;;;;;52.27;24.07;;;;;;;4.06;83.68;101660.98;113290;1209;64393;-78
2021/03/24 03:22:58;;;;;;;62.67;30.77;;;;;;;4.06;83.44;101661.80;113076;1209;64364;-77
2021/03/24 03:25:30;;;;;;;56.90;30.37;;;;;;;4.09;83.55;101666.83;113173;1209;64473;-76
2021/03/24 03:27:59;;;;;;;59.95;31.45;;;;;;;4.11;83.66;101668.52;113921;1209;64349;-77
2021/03/24 03:30:29;;;;;;;52.80;28.80;;;;;;;4.11;83.31;101665.89;113278;1209;64397;-77
2021/03/24 03:32:59;;;;;;;53.65;28.90;;;;;;;4.08;83.51;101670.41;113395;1209;64522;-80
2021/03/24 03:35:31;;;;;;;52.25;28.80;;;;;;;4.10;83.52;101667.66;113126;1209;64310;-77
2021/03/24 03:38:00;;;;;;;59.67;27.33;;;;;;;4.07;83.10;101666.09;113091;1209;64458;-77
2021/03/24 03:40:30;;;;;;;65.97;30.33;;;;;;;4.07;83.45;101660.84;113206;1209;64352;-78
2021/03/24 03:42:59;;;;;;;62.53;31.00;;;;;;;4.06;83.77;101656.55;112995;1209;65627;-78
2021/03/24 03:45:26;;;;;;;70.37;32.47;;;;;;;4.06;83.36;101661.80;113066;1209;65536;-78
2021/03/24 03:47:53;;;;;;;57.40;29.37;;;;;;;4.05;83.65;101660.11;113126;1209;64403;-78
2021/03/24 03:50:24;;;;;;;56.85;27.55;;;;;;;4.04;83.48;101647.95;113098;1209;64362;-78
2021/03/24 03:53:03;;;;;;;58.70;32.30;;;;;;;4.04;83.96;101658.45;113086;1209;64470;-77
2021/03/24 03:56:08;;;;;;;72.70;33.30;;;;;;;4.02;83.38;101647.22;113157;1209;64374;-76
2021/03/24 03:58:48;;;;;;;66.37;32.40;;;;;;;4.04;83.99;101647.95;112923;1209;64428;-77
2021/03/24 04:01:20;;;;;;;46.33;22.50;;;;;;;4.04;83.29;101652.37;112996;1209;64352;-76
2021/03/24 04:04:20;;;;;;;65.53;33.37;;;;;;;4.03;84.27;101650.67;113112;1209;64320;-76
2021/03/24 04:06:56;;;;;;;58.95;29.40;;;;;;;4.01;83.49;101653.40;112835;1209;64442;-76
2021/03/24 04:09:23;;;;;;;70.23;32.07;;;;;;;4.00;83.99;101648.28;113027;1209;64789;-77
2021/03/24 04:11:52;;;;;;;46.97;22.83;;;;;;;4.00;83.81;101645.66;112908;1209;64477;-77
2021/03/24 04:14:23;;;;;;;63.60;31.47;;;;;;;3.99;83.51;101644.79;112801;1209;64380;-76
2021/03/24 04:16:51;;;;;;;67.53;31.73;;;;;;;4.00;84.00;101641.23;112934;1209;64336;-77
2021/03/24 04:19:22;;;;;;;71.20;32.50;;;;;;;4.00;83.68;101648.28;112999;1209;64470;-78
2021/03/24 04:21:53;;;;;;;66.37;31.97;;;;;;;4.00;84.05;101646.48;113417;1209;64487;-76
2021/03/24 04:24:26;;;;;;;73.63;35.40;;;;;;;3.99;83.96;101650.04;112996;1209;64391;-76
2021/03/24 04:26:59;;;;;;;69.57;31.70;;;;;;;4.00;84.41;101651.73;112970;1209;64396;-77
2021/03/24 04:29:44;;;;;;;59.40;27.90;;;;;;;4.00;83.58;101649.11;113043;1209;64406;-76
2021/03/24 04:32:12;;;;;;;70.97;33.80;;;;;;;4.00;84.10;101656.98;113060;1209;64445;-75
2021/03/24 04:34:40;;;;;;;64.35;32.30;;;;;;;4.02;83.82;101655.09;113017;1209;64409;-74
2021/03/24 04:37:24;;;;;;;71.70;33.95;;;;;;;4.00;83.97;101649.11;112947;1209;64414;-76
2021/03/24 04:40:01;;;;;;;53.17;25.37;;;;;;;4.01;84.33;101658.65;112927;1209;64384;-77
2021/03/24 04:42:52;;;;;;;69.60;33.10;;;;;;;4.03;84.49;101650.67;113010;1209;64453;-76
2021/03/24 04:45:22;;;;;;;68.37;33.40;;;;;;;4.04;84.64;101647.95;113040;1209;64330;-77
2021/03/24 04:47:56;;;;;;;65.40;32.43;;;;;;;4.06;83.59;101653.93;113115;1209;64387;-77
2021/03/24 04:50:29;;;;;;;61.88;30.00;;;;;;;4.07;83.99;101657.39;113215;1209;64467;-77
2021/03/24 04:52:59;;;;;;;70.23;31.10;;;;;;;4.06;83.65;101661.80;112956;1209;65620;-77
2021/03/24 04:55:36;;;;;;;70.05;35.05;;;;;;;4.09;83.36;101661.58;113095;1209;64560;-78
2021/03/24 04:58:05;;;;;;;79.50;34.77;;;;;;;4.11;83.82;101663.27;113130;1209;65510;-77
2021/03/24 05:00:42;;;;;;;69.37;31.90;;;;;;;4.12;84.22;101659.68;113080;1209;64374;-78
2021/03/24 05:03:13;;;;;;;68.83;33.00;;;;;;;4.12;84.13;101655.26;112981;1209;64431;-75
2021/03/24 05:05:48;;;;;;;67.37;32.70;;;;;;;4.13;83.58;101656.13;113063;1209;64359;-77
2021/03/24 05:08:18;;;;;;;;;;;;;;;4.13;83.67;101661.38;112980;1217;64349;-78
2021/03/24 05:10:49;;;;;;;71.00;32.97;;;;;;;4.11;83.66;101658.84;113067;1209;64384;-78
2021/03/24 05:13:58;;;;;;;77.60;35.00;;;;;;;4.12;83.37;101655.26;113020;1209;64403;-79
2021/03/24 05:16:35;;;;;;;66.90;31.80;;;;;;;4.13;83.10;101650.87;112709;1212;64483;-78
2021/03/24 05:19:03;;;;;;;66.70;33.23;;;;;;;4.13;82.76;101649.08;112755;1212;64326;-77
2021/03/24 05:22:00;;;;;;;37.70;18.23;;;;;;;4.12;82.88;101650.01;112874;1209;64406;-77
2021/03/24 05:24:31;;;;;;;74.40;33.27;;;;;;;4.12;83.08;101654.43;112980;1209;64540;-78
2021/03/24 05:27:16;;;;;;;77.40;33.30;;;;;;;4.13;82.35;101648.25;113047;1209;64364;-77
2021/03/24 05:29:48;;;;;;;66.77;32.17;;;;;;;4.13;82.21;101662.20;113002;1209;64419;-78
2021/03/24 05:32:29;;;;;;;63.20;31.40;;;;;;;4.14;82.69;101661.24;113070;1209;64326;-77
2021/03/24 05:34:59;;;;;;;67.40;31.30;;;;;;;4.14;82.40;101660.41;113154;1209;64310;-77
2021/03/24 05:37:29;;;;;;;64.00;32.50;;;;;;;4.13;82.30;101666.63;113031;1209;64374;-78
2021/03/24 05:40:31;;;;;;;62.60;28.80;;;;;;;4.13;81.89;101659.58;113054;1209;64378;-78
2021/03/24 05:43:23;;;;;;;68.80;30.53;;;;;;;4.16;82.10;101661.97;112953;1209;64381;-80
2021/03/24 05:46:01;;;;;;;66.80;30.05;;;;;;;4.19;81.01;101655.69;113025;1209;65552;-77
2021/03/24 05:49:01;;;;;;;59.85;29.85;;;;;;;4.20;81.82;101652.93;113079;1209;64349;-77
2021/03/24 05:51:49;;;;;;;56.90;29.03;;;;;;;4.22;81.49;101660.70;113143;1209;64384;-78
2021/03/24 05:54:42;;;;;;;64.70;30.00;;;;;;;4.22;80.95;101655.45;113039;1209;64658;-77
2021/03/24 05:57:28;;;;;;;64.80;29.80;;;;;;;4.23;80.97;101657.12;113065;1209;64368;-78
2021/03/24 06:00:10;;;;;;;60.90;30.30;;;;;;;4.25;80.44;101648.20;113157;1209;64384;-78
2021/03/24 06:03:06;;;;;;;60.10;29.67;;;;;;;4.28;80.79;101644.52;113122;1209;64410;-78
2021/03/24 06:05:59;;;;;;;32.53;15.53;;;;;;;4.26;80.29;101641.16;113074;1209;64467;-79
2021/03/24 06:08:48;;;;;;;55.57;27.77;;;;;;;4.23;80.58;101650.09;113160;1209;64489;-78
2021/03/24 06:11:15;;;;;;;60.27;28.57;;;;;;;4.20;79.64;101650.30;113140;1209;64357;-75
2021/03/24 06:13:56;;;;;;;52.73;25.67;;;;;;;4.19;79.51;101648.64;112946;1209;64376;-78
2021/03/24 06:16:44;;;;;;;44.85;24.70;;;;;;;4.16;79.55;101650.64;112958;1209;64368;-77
2021/03/24 06:19:21;;;;;;;57.45;28.65;;;;;;;4.16;79.61;101650.64;113094;1209;64525;-76
2021/03/24 06:22:34;;;;;;;53.53;29.20;;;;;;;4.15;80.13;101654.23;113113;1209;64384;-76
2021/03/24 06:25:10;;;;;;;56.57;26.07;;;;;;;4.17;79.03;101654.95;113019;1209;64403;-76
2021/03/24 06:28:04;;;;;;;47.55;21.20;;;;;;;4.21;79.29;101661.67;113102;1209;64377;-75
2021/03/24 06:30:49;;;;;;;60.40;30.15;;;;;;;4.26;79.18;101649.03;112949;1209;64323;-75
2021/03/24 06:33:34;;;;;;;;;;;;;;;4.30;79.22;101663.63;112957;1217;64390;-74
2021/03/24 06:36:20;;;;;;;50.77;25.70;;;;;;;4.28;78.35;101653.22;112939;1209;64410;-76
2021/03/24 06:39:21;;;;;;;54.45;28.20;;;;;;;4.26;78.26;101655.12;112933;1209;65592;-75
2021/03/24 06:41:54;;;;;;;50.93;23.87;;;;;;;4.23;78.50;101655.35;112909;1209;64343;-75
2021/03/24 06:44:51;;;;;;;56.50;27.70;;;;;;;4.26;78.54;101654.29;112890;1209;64384;-76
2021/03/24 06:47:34;;;;;;;60.87;27.03;;;;;;;4.30;78.45;101645.24;112935;1209;64454;-75
2021/03/24 06:50:38;;;;;;;61.20;28.57;;;;;;;4.35;78.83;101656.23;112979;1209;64368;-75
2021/03/24 06:53:32;;;;;;;57.63;27.83;;;;;;;4.39;78.02;101665.58;113001;1209;65594;-75
2021/03/24 06:56:37;;;;;;;51.75;25.00;;;;;;;4.45;78.42;101662.52;113009;1209;64383;-76
2021/03/24 06:59:30;;;;;;;52.47;27.30;;;;;;;4.48;78.32;101664.94;112963;1209;65581;-76
2021/03/24 07:02:15;;;;;;;56.60;25.90;;;;;;;4.56;77.97;101655.64;112944;1209;64604;-74
2021/03/24 07:05:12;;;;;;;62.83;28.13;;;;;;;4.64;78.26;101666.44;112950;1209;64386;-74
2021/03/24 07:07:58;;;;;;;50.50;25.63;;;;;;;4.75;78.18;101674.36;112807;1209;64419;-75
2021/03/24 07:10:51;;;;;;;56.93;25.33;;;;;;;4.83;76.90;101666.75;112899;1209;64490;-75
2021/03/24 07:13:47;;;;;;;45.10;22.95;;;;;;;4.92;77.33;101669.66;112936;1209;64396;-75
2021/03/24 07:16:40;;;;;;;60.90;26.30;;;;;;;4.98;77.21;101679.72;112932;1209;65588;-75
2021/03/24 07:19:32;;;;;;;56.60;27.60;;;;;;;5.08;77.39;101675.45;112974;1209;64381;-75
2021/03/24 07:22:39;;;;;;;50.40;26.43;;;;;;;5.14;75.83;101668.88;112928;1209;64393;-76
2021/03/24 07:25:11;;;;;;;51.13;24.67;;;;;;;5.21;75.41;101678.00;113108;1209;64473;-75
2021/03/24 07:27:55;;;;;;;49.60;25.00;;;;;;;5.24;74.79;101675.95;113083;1209;64609;-75
2021/03/24 07:30:37;;;;;;;45.50;23.02;;;;;;;5.34;74.68;101678.74;112947;1209;64448;-75
2021/03/24 07:33:59;;;;;;;28.15;13.70;;;;;;;5.46;75.16;101687.48;112992;1209;64416;-75
2021/03/24 07:36:39;;;;;;;42.53;21.63;;;;;;;5.57;73.72;101682.25;112989;1209;65658;-76
2021/03/24 07:39:29;;;;;;;31.95;15.65;;;;;;;5.66;73.50;101684.16;113043;1209;64359;-75
2021/03/24 07:42:07;;;;;;;52.27;26.67;;;;;;;5.72;73.11;101673.16;112940;1209;64368;-77
2021/03/24 07:44:57;;;;;;;42.57;22.60;;;;;;;5.80;73.18;101679.61;112943;1209;64991;-76
2021/03/24 07:47:51;;;;;;;42.20;21.07;;;;;;;5.91;73.06;101680.47;112973;1209;65595;-75
2021/03/24 07:50:36;;;;;;;46.33;24.20;;;;;;;6.05;73.63;101676.77;112981;1209;64419;-76
2021/03/24 07:53:09;;;;;;;37.13;18.85;;;;;;;6.21;73.19;101681.67;112857;1209;64384;-76
2021/03/24 07:55:44;;;;;;;49.67;25.37;;;;;;;6.38;71.32;101682.95;113013;1209;64410;-77
2021/03/24 07:58:36;;;;;;;37.35;19.10;;;;;;;6.61;71.35;101685.52;112898;1209;64474;-76
2021/03/24 08:01:13;;;;;;;44.53;23.37;;;;;;;6.81;70.78;101679.46;112944;1209;64837;-76
2021/03/24 08:04:31;;;;;;;49.53;24.67;;;;;;;6.98;69.59;101678.07;112977;1209;64373;-76
2021/03/24 08:07:35;;;;;;;48.57;25.07;;;;;;;7.06;68.44;101682.72;112820;1209;64579;-78
2021/03/24 08:10:24;;;;;;;45.33;24.20;;;;;;;7.09;67.80;101677.17;112943;1209;64330;-76
2021/03/24 08:13:00;;;;;;;44.73;21.97;;;;;;;7.11;68.25;101681.35;112937;1209;64455;-76
2021/03/24 08:16:00;;;;;;;40.07;21.13;;;;;;;7.13;67.89;101678.59;113073;1209;64349;-75
2021/03/24 08:18:46;;;;;;;37.23;18.27;;;;;;;7.17;67.24;101677.38;113071;1209;64358;-75
2021/03/24 08:21:31;;;;;;;47.90;22.60;;;;;;;7.23;67.74;101674.22;113046;1209;64371;-75
2021/03/24 08:24:18;;;;;;;35.77;18.70;;;;;;;7.27;67.31;101680.92;112958;1209;64375;-75
2021/03/24 08:26:52;;;;;;;46.50;24.05;;;;;;;7.29;67.08;101675.52;112974;1209;64461;-78
2021/03/24 08:29:36;;;;;;;45.70;23.15;;;;;;;7.42;68.05;101673.52;113641;1209;64371;-77
2021/03/24 08:32:03;;;;;;;39.53;22.17;;;;;;;7.58;67.10;101677.48;113085;1209;64320;-77
2021/03/24 08:34:46;;;;;;;39.77;21.40;;;;;;;7.62;66.00;101674.44;113070;1209;64557;-80
2021/03/24 08:37:42;;;;;;;44.05;23.50;;;;;;;7.71;66.24;101671.03;113036;1209;64313;-76
2021/03/24 08:40:30;;;;;;;43.43;23.33;;;;;;;7.87;66.01;101673.16;113095;1209;64413;-78
2021/03/24 08:43:24;;;;;;;32.00;17.45;;;;;;;8.07;66.07;101670.58;113387;1209;64377;-79
2021/03/24 08:46:09;;;;;;;42.90;22.87;;;;;;;8.26;65.29;101675.09;113075;1209;64394;-77
2021/03/24 08:48:36;;;;;;;29.10;14.90;;;;;;;8.47;64.35;101669.73;113165;1209;64352;-77
2021/03/24 08:51:26;;;;;;;43.23;22.23;;;;;;;8.68;64.45;101677.55;113247;1209;64336;-76
2021/03/24 08:54:19;;;;;;;39.85;20.40;;;;;;;8.89;63.11;101666.84;113149;1209;64461;-77
2021/03/24 08:57:01;;;;;;;36.90;20.25;;;;;;;9.03;62.76;101661.13;113175;1209;64347;-76
2021/03/24 08:59:42;;;;;;;42.00;22.87;;;;;;;9.25;62.54;101667.91;113208;1209;64745;-76
2021/03/24 09:02:43;;;;;;;36.85;20.85;;;;;;;9.44;61.74;101666.20;113016;1209;64371;-75
2021/03/24 09:05:31;;;;;;;37.20;21.10;;;;;;;9.58;62.15;101666.58;113066;1209;64384;-76
2021/03/24 09:08:40;;;;;;;40.97;21.80;;;;;;;9.68;60.81;101661.23;112960;1209;64378;-77
2021/03/24 09:11:31;;;;;;;40.40;23.23;;;;;;;9.76;61.05;101656.05;112953;1209;64340;-77
2021/03/24 09:14:27;;;;;;;42.20;22.40;;;;;;;9.84;61.09;101649.16;113097;1209;64474;-77
2021/03/24 09:17:06;;;;;;;40.37;22.83;;;;;;;9.93;60.65;101653.60;113292;1209;64313;-77
2021/03/24 09:20:13;;;;;;;55.20;25.07;;;;;;;9.97;59.33;101645.20;113231;1209;64320;-76
2021/03/24 09:22:50;;;;;;;44.67;23.53;;;;;;;9.98;59.39;101646.86;112909;1209;64493;-77
2021/03/24 09:25:39;;;;;;;45.10;24.07;;;;;;;10.06;59.90;101647.95;112947;1209;64413;-74
2021/03/24 09:28:22;;;;;;;46.27;22.97;;;;;;;10.17;58.61;101645.09;113219;1209;64464;-76
2021/03/24 09:31:10;;;;;;;42.10;24.50;;;;;;;10.31;59.87;101649.92;113062;1209;64348;-76
2021/03/24 09:33:56;;;;;;;43.20;23.07;;;;;;;10.47;59.54;101646.59;113130;1209;64333;-75
2021/03/24 09:36:57;;;;;;;40.30;21.50;;;;;;;10.63;58.83;101637.97;114232;1209;64356;-75
2021/03/24 09:39:48;;;;;;;41.47;22.17;;;;;;;10.76;58.00;101634.93;112992;1209;64368;-76
2021/03/24 09:42:33;;;;;;;39.87;23.40;;;;;;;10.90;57.29;101645.01;112962;1209;65465;-75
2021/03/24 09:45:12;;;;;;;46.03;24.18;;;;;;;11.02;56.75;101635.78;113019;1209;64384;-76
2021/03/24 09:47:49;;;;;;;42.00;23.60;;;;;;;11.08;56.75;101637.00;116001;1209;62178;-77
2021/03/24 09:50:22;;;;;;;39.70;22.53;;;;;;;11.15;55.70;101635.38;114654;1209;64467;-75
2021/03/24 09:53:00;;;;;;;34.80;19.43;;;;;;;11.25;56.06;101639.77;115697;1209;64194;-79
2021/03/24 09:55:31;;;;;;;38.17;21.20;;;;;;;11.28;55.43;101634.96;113439;1209;64447;-78
2021/03/24 09:58:05;;;;;;;39.30;21.10;;;;;;;11.35;55.16;101641.34;113234;1209;64340;-77
2021/03/24 10:00:40;;;;;;;33.70;16.17;;;;;;;11.32;54.91;101630.18;113252;1209;65540;-77
2021/03/24 10:03:22;;;;;;;37.93;22.63;;;;;;;11.54;55.46;101634.11;113141;1209;64371;-77
2021/03/24 10:05:58;;;;;;;39.07;20.20;;;;;;;11.68;55.13;101630.86;113246;1209;64301;-77
2021/03/24 10:08:39;;;;;;;36.05;20.25;;;;;;;11.82;54.31;101616.98;113202;1209;64381;-78
2021/03/24 10:11:16;;;;;;;43.40;24.67;;;;;;;11.92;54.15;101626.67;113304;1209;64320;-78
2021/03/24 10:13:48;;;;;;;44.93;22.30;;;;;;;12.09;54.28;101623.09;113292;1209;64563;-78
2021/03/24 10:16:22;;;;;;;37.80;22.20;;;;;;;12.22;54.01;101610.16;113312;1209;64467;-78
2021/03/24 10:19:01;;;;;;;37.50;23.00;;;;;;;12.35;53.84;101616.83;113471;1209;64399;-78
2021/03/24 10:21:41;;;;;;;40.95;23.45;;;;;;;12.38;53.11;101616.48;113662;1209;64329;-78
2021/03/24 10:24:17;;;;;;;34.17;19.40;;;;;;;12.40;53.49;101614.50;113868;1209;64324;-78
2021/03/24 10:26:54;;;;;;;40.50;22.60;;;;;;;12.47;52.06;101614.67;113805;1209;64369;-76
2021/03/24 10:29:36;;;;;;;42.30;21.87;;;;;;;12.43;52.20;101611.49;112975;1209;64376;-77
2021/03/24 10:32:24;;;;;;;33.60;16.57;;;;;;;12.53;51.73;101608.69;113259;1209;65658;-78
2021/03/24 10:35:12;;;;;;;35.80;21.00;;;;;;;12.62;51.73;101602.36;112933;1208;64458;-76
2021/03/24 10:38:11;;;;;;;36.73;20.60;;;;;;;12.55;50.61;101602.20;113355;1209;64850;-79
2021/03/24 10:40:46;;;;;;;38.03;21.10;;;;;;;12.49;50.38;101596.70;113949;1209;64304;-79
2021/03/24 10:43:30;;;;;;;38.08;21.08;;;;;;;12.53;51.24;101593.55;113780;1209;64386;-79
2021/03/24 10:46:11;;;;;;;36.33;20.07;;;;;;;12.65;50.48;101591.39;113439;1209;64406;-79
2021/03/24 10:49:13;;;;;;;44.60;22.27;;;;;;;12.78;49.86;101590.89;113288;1209;64349;-77
2021/03/24 10:52:15;;;;;;;38.35;21.60;;;;;;;12.97;50.43;101589.71;113729;1209;64384;-75
2021/03/24 10:54:41;;;;;;;34.00;17.80;;;;;;;13.10;50.54;101584.69;113471;1208;64458;-80
2021/03/24 10:57:25;;;;;;;34.33;19.63;;;;;;;13.16;49.18;101585.84;113461;1209;64304;-77
2021/03/24 11:00:18;;;;;;;32.03;18.00;;;;;;;13.06;49.39;101581.52;113289;1209;64359;-77
2021/03/24 11:03:00;;;;;;;36.57;21.30;;;;;;;13.10;49.23;101581.20;113334;1209;64684;-77
2021/03/24 11:05:58;;;;;;;42.83;24.03;;;;;;;13.03;49.34;101581.88;114120;1209;64371;-77
2021/03/24 11:08:44;;;;;;;36.35;21.10;;;;;;;13.01;49.73;101585.71;112821;1209;64384;-76
2021/03/24 11:11:20;;;;;;;33.75;19.40;;;;;;;13.06;49.40;101575.37;113123;1209;64381;-77
2021/03/24 11:14:16;;;;;;;37.60;20.87;;;;;;;13.12;49.47;101587.19;113192;1209;64442;-77
2021/03/24 11:16:56;;;;;;;33.90;20.25;;;;;;;13.19;49.60;101562.34;113163;1209;64381;-77
2021/03/24 11:19:31;;;;;;;38.20;20.70;;;;;;;13.28;49.21;101567.66;113314;1208;64234;-77
2021/03/24 11:22:29;;;;;;;40.48;20.10;;;;;;;13.29;48.68;101578.17;113520;1209;64368;-77
2021/03/24 11:25:18;;;;;;;48.05;26.25;;;;;;;13.27;48.61;101569.49;113232;1209;64522;-77
2021/03/24 11:27:49;;;;;;;40.93;21.47;;;;;;;13.29;48.46;101580.84;113452;1209;64409;-77
2021/03/24 11:30:40;;;;;;;35.23;20.27;;;;;;;13.29;48.56;101562.19;113282;1209;64455;-80
2021/03/24 11:33:30;;;;;;;51.63;23.97;;;;;;;13.33;48.11;101560.84;113503;1209;64441;-82
2021/03/24 11:36:05;;;;;;;37.93;19.30;;;;;;;13.33;47.85;101557.36;113628;1209;65609;-80
2021/03/24 11:38:37;;;;;;;38.07;22.13;;;;;;;13.34;48.14;101551.84;114055;1209;64380;-80
2021/03/24 11:41:21;;;;;;;39.17;21.20;;;;;;;13.46;47.65;101553.13;113694;1209;64715;-80
2021/03/24 11:44:00;;;;;;;36.90;20.10;;;;;;;13.65;47.42;101548.39;113363;1209;65604;-79
2021/03/24 11:46:34;;;;;;;38.47;22.30;;;;;;;13.79;45.94;101547.66;113434;1209;62463;-79
2021/03/24 11:49:14;;;;;;;;;;;;;;;13.81;45.65;101555.46;113426;1217;65253;-78
2021/03/24 11:51:43;;;;;;;40.45;21.05;;;;;;;13.84;46.45;101533.79;113386;1208;64308;-78
2021/03/24 11:54:16;;;;;;;34.35;19.65;;;;;;;13.98;45.95;101529.52;113266;1209;64387;-78
2021/03/24 11:57:04;;;;;;;38.57;20.90;;;;;;;14.27;45.26;101529.64;113668;1209;64378;-78
2021/03/24 11:59:52;;;;;;;24.20;14.37;;;;;;;14.58;44.56;101528.77;113345;1209;64314;-79
2021/03/24 12:02:53;;;;;;;36.43;20.67;;;;;;;14.84;42.66;101530.19;113352;1209;64355;-78
2021/03/24 12:05:32;;;;;;;34.93;20.93;;;;;;;15.28;42.72;101521.36;113271;1209;64442;-79